Time;durP1;ratioP1;P1;durP2;ratioP2;P2;SDS_P1;SDS_P2;PMS_P1;PMS_P2;Temp;Humidity;BMP_temperature;BMP_pressure;BME280_temperature;BME280_humidity;BME280_pressure;Samples;Min_cycle;Max_cycle;Signal;HPM_P1;HPM_P2
2024/04/05 00:01:28;;;;;;;22.00;5.97;;;;;;;12.00;100.00;100846.81;10479166;28;20338;-72
2024/04/05 00:06:28;;;;;;;30.80;7.75;;;;;;;11.90;100.00;100849.09;10463142;28;20052;-72
2024/04/05 00:11:29;;;;;;;24.65;7.07;;;;;;;11.80;100.00;100842.16;10461645;28;20348;-71
2024/04/05 00:16:29;;;;;;;21.77;6.25;;;;;;;11.67;100.00;100833.16;10462659;28;20057;-73
2024/04/05 00:21:30;;;;;;;37.78;8.43;;;;;;;11.69;100.00;100823.78;10461609;28;20035;-71
2024/04/05 00:26:30;;;;;;;26.33;4.55;;;;;;;11.73;100.00;100829.63;10461303;28;20033;-71
2024/04/05 00:31:30;;;;;;;21.45;6.00;;;;;;;11.76;100.00;100819.19;10462060;28;20067;-72
2024/04/05 00:36:31;;;;;;;24.23;4.80;;;;;;;11.67;100.00;100815.00;10460793;28;20036;-72
2024/04/05 00:41:31;;;;;;;24.70;6.40;;;;;;;11.76;100.00;100819.19;10460310;28;20365;-73
2024/04/05 00:46:32;;;;;;;13.85;4.47;;;;;;;11.72;100.00;100825.25;10460298;28;20041;-73
2024/04/05 00:51:32;;;;;;;19.88;6.53;;;;;;;11.88;100.00;100835.75;10460365;28;20041;-71
2024/04/05 00:56:32;;;;;;;28.52;5.68;;;;;;;11.94;100.00;100832.19;10460045;28;20124;-72
2024/04/05 01:01:33;;;;;;;19.02;7.18;;;;;;;11.91;100.00;100819.03;10459478;28;20025;-71
2024/04/05 01:06:33;;;;;;;16.00;5.10;;;;;;;11.95;100.00;100817.56;10459868;28;20037;-76
2024/04/05 01:11:34;;;;;;;13.77;5.88;;;;;;;11.92;100.00;100837.00;10461073;28;20047;-75
2024/04/05 01:16:34;;;;;;;20.15;6.05;;;;;;;11.93;100.00;100821.53;10460819;28;20403;-74
2024/04/05 01:21:34;;;;;;;21.05;6.38;;;;;;;11.76;100.00;100829.22;10459778;28;20116;-73
2024/04/05 01:26:35;;;;;;;24.38;7.78;;;;;;;11.78;100.00;100810.88;10442385;28;20119;-73
2024/04/05 01:31:35;;;;;;;23.30;5.90;;;;;;;11.75;100.00;100814.00;10457338;28;20029;-74
2024/04/05 01:36:36;;;;;;;36.58;8.27;;;;;;;11.82;100.00;100795.84;10457893;28;20132;-72
2024/04/05 01:41:36;;;;;;;28.77;8.68;;;;;;;11.92;100.00;100803.59;10456808;28;20078;-72
2024/04/05 01:46:37;;;;;;;18.77;5.50;;;;;;;11.89;100.00;100812.16;10457926;28;20347;-73
2024/04/05 01:51:38;;;;;;;19.05;6.53;;;;;;;11.93;100.00;100813.41;10458197;28;20029;-73
2024/04/05 01:56:39;;;;;;;21.65;8.18;;;;;;;11.84;100.00;100810.91;10458429;28;20036;-72
2024/04/05 02:01:39;;;;;;;23.90;6.72;;;;;;;11.82;100.00;100788.53;10457010;28;20025;-72
2024/04/05 02:06:40;;;;;;;19.15;7.60;;;;;;;11.79;100.00;100790.81;10457069;28;20039;-74
2024/04/05 02:11:40;;;;;;;12.80;6.50;;;;;;;11.88;100.00;100778.75;10457641;28;20025;-73
2024/04/05 02:16:41;;;;;;;22.98;6.88;;;;;;;11.93;100.00;100787.09;10457540;28;20041;-73
2024/04/05 02:21:42;;;;;;;24.13;6.65;;;;;;;11.81;100.00;100784.16;10460255;28;20419;-73
2024/04/05 02:26:43;;;;;;;12.45;5.35;;;;;;;11.88;100.00;100784.19;10461204;28;20044;-73
2024/04/05 02:31:43;;;;;;;24.67;7.93;;;;;;;11.97;100.00;100779.41;10475480;28;20373;-73
2024/04/05 02:36:43;;;;;;;17.08;7.57;;;;;;;11.99;100.00;100772.69;10461224;28;20036;-73
2024/04/05 02:41:45;;;;;;;22.25;7.18;;;;;;;12.06;100.00;100753.69;10463654;28;20033;-72
2024/04/05 02:46:45;;;;;;;15.00;6.07;;;;;;;12.12;100.00;100750.13;10470561;28;20033;-71
2024/04/05 02:51:46;;;;;;;23.15;6.15;;;;;;;12.12;100.00;100733.00;10470993;28;20033;-72
2024/04/05 02:56:46;;;;;;;20.25;7.13;;;;;;;12.20;100.00;100738.22;10469134;28;20036;-72
2024/04/05 03:01:47;;;;;;;19.33;5.47;;;;;;;12.18;100.00;100740.31;10468653;28;20029;-72
2024/04/05 03:06:47;;;;;;;18.58;5.95;;;;;;;12.28;100.00;100746.13;10467631;28;20025;-72
2024/04/05 03:11:48;;;;;;;18.92;5.95;;;;;;;12.27;100.00;100742.56;10467842;28;20439;-74
2024/04/05 03:16:48;;;;;;;17.00;5.82;;;;;;;12.23;100.00;100741.34;10468757;28;20352;-74
2024/04/05 03:21:49;;;;;;;13.73;5.63;;;;;;;12.27;100.00;100717.31;10464947;28;20114;-74
2024/04/05 03:26:49;;;;;;;14.63;6.05;;;;;;;12.29;100.00;100713.34;10464574;28;20021;-74
2024/04/05 03:31:50;;;;;;;10.77;5.30;;;;;;;12.25;100.00;100698.53;10463440;28;20029;-75
2024/04/05 03:36:50;;;;;;;15.70;4.72;;;;;;;12.32;100.00;100710.19;10463696;28;20503;-72
2024/04/05 03:41:51;;;;;;;12.95;6.03;;;;;;;12.31;100.00;100696.81;10464116;28;20035;-75
2024/04/05 03:46:51;;;;;;;10.32;5.13;;;;;;;12.33;100.00;100701.00;10463655;28;20063;-73
2024/04/05 03:51:51;;;;;;;10.68;4.80;;;;;;;12.38;100.00;100702.22;10465106;28;20037;-74
2024/04/05 03:56:52;;;;;;;20.75;6.72;;;;;;;12.41;100.00;100713.53;10477986;28;20067;-74
2024/04/05 04:01:53;;;;;;;7.88;4.47;;;;;;;12.47;100.00;100682.75;10462410;28;20029;-74
2024/04/05 04:06:54;;;;;;;13.43;5.95;;;;;;;12.49;100.00;100679.84;10461828;28;20184;-75
2024/04/05 04:11:54;;;;;;;11.55;4.82;;;;;;;12.44;100.00;100660.63;10462066;28;20028;-74
2024/04/05 04:16:55;;;;;;;13.70;3.97;;;;;;;12.38;100.00;100643.34;10460249;28;20048;-72
2024/04/05 04:21:56;;;;;;;13.40;7.07;;;;;;;12.28;100.00;100635.66;10459582;28;20036;-74
2024/04/05 04:26:56;;;;;;;13.95;5.78;;;;;;;12.21;100.00;100647.56;10458229;28;20029;-75
2024/04/05 04:31:56;;;;;;;18.15;4.38;;;;;;;12.32;100.00;100657.78;10459523;28;20495;-74
2024/04/05 04:36:57;;;;;;;21.95;7.38;;;;;;;12.40;100.00;100640.41;10460428;28;20025;-75
2024/04/05 04:41:57;;;;;;;12.73;3.83;;;;;;;12.44;100.00;100642.47;10458848;28;20044;-72
2024/04/05 04:46:57;;;;;;;20.15;6.22;;;;;;;12.34;100.00;100642.09;10458596;28;20468;-73
2024/04/05 04:51:58;;;;;;;15.98;5.00;;;;;;;12.30;100.00;100638.16;10474425;28;20071;-74
2024/04/05 04:56:58;;;;;;;18.63;4.45;;;;;;;12.31;100.00;100632.50;10459799;28;20044;-76
2024/04/05 05:01:59;;;;;;;15.23;6.05;;;;;;;12.38;100.00;100637.06;10458420;28;20033;-74
2024/04/05 05:06:59;;;;;;;7.20;4.88;;;;;;;12.43;100.00;100645.41;10461042;28;20044;-74
2024/04/05 05:12:00;;;;;;;5.43;3.90;;;;;;;12.36;100.00;100631.84;10401624;28;20049;-73
2024/04/05 05:17:00;;;;;;;19.08;5.63;;;;;;;12.43;100.00;100612.81;10459647;28;20048;-77
2024/04/05 05:22:00;;;;;;;9.93;3.40;;;;;;;12.44;100.00;100631.59;10459154;28;20033;-75
2024/04/05 05:27:01;;;;;;;19.73;4.07;;;;;;;12.45;100.00;100616.16;10457161;28;20036;-74
2024/04/05 05:32:01;;;;;;;8.13;4.35;;;;;;;12.33;100.00;100603.25;10458268;28;20029;-74
2024/04/05 05:37:01;;;;;;;6.85;5.20;;;;;;;12.40;100.00;100599.66;10457632;28;20422;-74
2024/04/05 05:42:02;;;;;;;6.38;4.82;;;;;;;12.47;100.00;100586.88;10459480;28;20115;-72
2024/04/05 05:47:03;;;;;;;16.52;6.72;;;;;;;12.59;100.00;100584.31;10457765;28;20445;-77
2024/04/05 05:52:08;;;;;;;12.13;5.20;;;;;;;12.68;100.00;100583.84;10458788;28;20449;-73
2024/04/05 05:57:09;;;;;;;12.45;6.78;;;;;;;12.72;100.00;100570.63;10461657;28;20095;-74
2024/04/05 06:02:09;;;;;;;11.60;6.60;;;;;;;12.72;100.00;100563.31;10458836;28;20062;-75
2024/04/05 06:07:09;;;;;;;15.82;5.30;;;;;;;12.77;100.00;100571.66;10457118;28;20029;-76
2024/04/05 06:12:10;;;;;;;10.55;6.20;;;;;;;12.76;100.00;100545.53;10456151;28;20037;-75
2024/04/05 06:17:11;;;;;;;18.00;6.78;;;;;;;12.76;100.00;100536.53;10458303;28;20037;-74
2024/04/05 06:22:11;;;;;;;9.48;4.47;;;;;;;12.91;100.00;100528.91;10458214;28;20369;-75
2024/04/05 06:27:12;;;;;;;22.35;4.93;;;;;;;12.92;100.00;100508.84;10455558;28;20036;-74
2024/04/05 06:32:12;;;;;;;14.00;4.60;;;;;;;13.04;100.00;100506.19;10455601;28;20029;-75
2024/04/05 06:37:13;;;;;;;12.60;3.63;;;;;;;13.20;100.00;100505.63;10456684;28;20592;-74
2024/04/05 06:42:13;;;;;;;12.30;5.93;;;;;;;13.33;100.00;100469.34;10456999;28;20060;-74
2024/04/05 06:47:14;;;;;;;23.83;5.30;;;;;;;13.32;100.00;100481.28;10456129;28;20036;-74
2024/04/05 06:52:14;;;;;;;13.85;4.97;;;;;;;13.28;100.00;100471.91;10454761;28;20059;-75
2024/04/05 06:57:15;;;;;;;12.07;3.97;;;;;;;13.25;100.00;100448.72;10456636;28;20037;-73
2024/04/05 07:02:16;;;;;;;10.98;4.75;;;;;;;13.40;100.00;100436.63;10453719;28;20431;-74
2024/04/05 07:07:17;;;;;;;9.27;4.47;;;;;;;13.43;100.00;100436.16;10455509;28;20403;-74
2024/04/05 07:12:17;;;;;;;12.18;4.63;;;;;;;13.49;100.00;100437.97;10454324;28;20033;-73
2024/04/05 07:17:17;;;;;;;5.20;4.18;;;;;;;13.46;100.00;100422.97;10453693;28;20041;-75
2024/04/05 07:22:19;;;;;;;9.23;4.22;;;;;;;13.45;100.00;100437.59;10454393;28;20041;-74
2024/04/05 07:27:20;;;;;;;14.27;4.80;;;;;;;13.43;100.00;100428.84;10454671;28;20099;-76
2024/04/05 07:32:21;;;;;;;4.72;3.40;;;;;;;13.12;100.00;100427.09;10470304;28;20094;-76
2024/04/05 07:37:21;;;;;;;11.73;4.40;;;;;;;12.97;100.00;100423.91;10475725;28;20433;-76
2024/04/05 07:42:22;;;;;;;6.07;3.35;;;;;;;12.95;100.00;100426.00;10472161;28;20460;-80
2024/04/05 07:47:22;;;;;;;7.43;2.92;;;;;;;12.90;100.00;100415.00;10473601;28;20032;-81
2024/04/05 07:52:22;;;;;;;1.60;1.60;;;;;;;12.89;100.00;100416.03;10471429;28;20025;-78
2024/04/05 07:57:23;;;;;;;0.93;0.93;;;;;;;12.88;100.00;100409.75;10471024;28;20057;-79
2024/04/05 08:02:28;;;;;;;0.88;0.88;;;;;;;12.79;100.00;100406.53;10469305;28;20055;-80
2024/04/05 08:07:30;;;;;;;0.60;0.60;;;;;;;12.69;100.00;100416.22;10468986;28;20362;-73
2024/04/05 08:12:30;;;;;;;0.73;0.73;;;;;;;12.67;100.00;100421.06;10461604;28;20033;-74
2024/04/05 08:17:31;;;;;;;0.45;0.45;;;;;;;12.78;100.00;100445.59;10460992;28;20045;-74
2024/04/05 08:22:32;;;;;;;0.55;0.55;;;;;;;12.84;100.00;100445.78;10461016;28;20058;-75
2024/04/05 08:27:32;;;;;;;0.50;0.50;;;;;;;12.92;100.00;100438.19;10460444;28;20086;-76
2024/04/05 08:32:32;;;;;;;0.50;0.50;;;;;;;12.99;100.00;100451.69;10464514;28;20040;-75
2024/04/05 08:37:33;;;;;;;0.75;0.75;;;;;;;12.90;100.00;100442.16;10459811;28;20048;-73
2024/04/05 08:42:34;;;;;;;0.50;0.50;;;;;;;12.95;100.00;100447.75;10459084;28;20029;-73
2024/04/05 08:47:34;;;;;;;0.63;0.63;;;;;;;12.90;100.00;100453.03;10458527;28;20033;-75
2024/04/05 08:52:35;;;;;;;0.50;0.50;;;;;;;13.07;100.00;100445.13;10442140;28;20025;-76
2024/04/05 08:57:36;;;;;;;0.50;0.50;;;;;;;13.09;100.00;100449.28;10459082;28;20052;-76
2024/04/05 09:02:38;;;;;;;0.60;0.60;;;;;;;13.14;100.00;100445.88;10458448;28;20044;-74
2024/04/05 09:07:39;;;;;;;0.40;0.40;;;;;;;13.13;100.00;100464.09;10457699;28;20461;-75
2024/04/05 09:12:50;;;;;;;0.40;0.40;;;;;;;13.25;100.00;100437.03;10459297;28;20029;-76
2024/04/05 09:17:51;;;;;;;0.57;0.57;;;;;;;13.36;100.00;100413.66;10457668;28;20060;-78
2024/04/05 09:23:01;;;;;;;0.75;0.75;;;;;;;13.51;100.00;100405.94;10458431;28;20136;-76
2024/04/05 09:28:14;;;;;;;0.40;0.40;;;;;;;13.67;100.00;100407.19;10461912;28;20025;-78
2024/04/05 09:33:21;;;;;;;0.50;0.50;;;;;;;13.72;100.00;100415.53;10466306;28;20125;-78
2024/04/05 09:38:21;;;;;;;3.50;2.47;;;;;;;13.91;100.00;100429.88;10460408;28;20043;-76
2024/04/05 09:43:21;;;;;;;1.48;1.38;;;;;;;13.91;100.00;100414.41;10460698;28;20154;-79
2024/04/05 09:48:23;;;;;;;0.40;0.40;;;;;;;14.00;100.00;100379.50;10446981;28;20029;-78
2024/04/05 09:53:24;;;;;;;0.60;0.60;;;;;;;14.13;100.00;100395.63;10470501;28;20055;-79
2024/04/05 09:58:25;;;;;;;0.57;0.57;;;;;;;14.12;100.00;100393.16;10441389;28;20066;-82
2024/04/05 10:03:28;;;;;;;0.60;0.60;;;;;;;14.19;100.00;100380.25;10450228;28;20027;-79
2024/04/05 10:08:28;;;;;;;0.60;0.60;;;;;;;14.40;100.00;100373.44;10460221;28;20031;-79
2024/04/05 10:13:30;;;;;;;0.75;0.75;;;;;;;14.56;100.00;100383.66;10485405;28;20032;-77
2024/04/05 10:18:39;;;;;;;0.75;0.75;;;;;;;14.34;100.00;100385.25;10465709;28;20068;-77
2024/04/05 10:23:40;;;;;;;0.70;0.70;;;;;;;14.24;100.00;100396.72;10458288;28;20131;-77
2024/04/05 10:28:40;;;;;;;1.25;1.25;;;;;;;14.26;100.00;100391.03;10456806;28;20441;-74
2024/04/05 10:33:45;;;;;;;0.50;0.50;;;;;;;14.25;100.00;100405.72;10455938;28;20033;-76
2024/04/05 10:38:46;;;;;;;0.47;0.47;;;;;;;14.41;100.00;100419.47;10459185;28;20036;-75
2024/04/05 10:43:46;;;;;;;0.95;0.95;;;;;;;14.08;100.00;100432.81;10470310;28;20051;-79
2024/04/05 10:48:56;;;;;;;0.50;0.50;;;;;;;13.97;100.00;100445.28;10471463;28;20170;-82
2024/04/05 10:54:13;;;;;;;0.85;0.85;;;;;;;14.01;100.00;100453.81;10463750;28;20036;-80
2024/04/05 10:59:18;;;;;;;0.60;0.60;;;;;;;14.02;100.00;100463.69;10470082;28;20044;-81
2024/04/05 11:04:23;;;;;;;2.35;2.15;;;;;;;13.82;100.00;100483.00;10464109;28;20576;-79
2024/04/05 11:09:32;;;;;;;0.70;0.70;;;;;;;13.55;100.00;100521.41;10480095;28;20353;-77
2024/04/05 11:14:32;;;;;;;0.55;0.55;;;;;;;13.21;100.00;100507.31;10473870;28;20029;-80
2024/04/05 11:19:33;;;;;;;0.50;0.50;;;;;;;13.10;100.00;100496.31;10481062;28;20049;-80
2024/04/05 11:24:34;;;;;;;0.60;0.60;;;;;;;13.20;100.00;100511.06;10474385;28;20048;-80
2024/04/05 11:29:35;;;;;;;0.50;0.50;;;;;;;13.63;100.00;100515.66;10470923;28;20448;-80
2024/04/05 11:34:35;;;;;;;0.75;0.75;;;;;;;14.26;100.00;100519.03;10473555;28;20078;-80
2024/04/05 11:39:36;;;;;;;5.28;2.67;;;;;;;15.05;100.00;100512.38;10481202;28;20029;-77
2024/04/05 11:44:36;;;;;;;0.60;0.60;;;;;;;15.41;100.00;100507.75;10472898;28;20035;-77
2024/04/05 11:49:37;;;;;;;0.88;0.88;;;;;;;16.38;100.00;100503.44;10471946;28;20419;-76
2024/04/05 11:54:38;;;;;;;0.68;0.68;;;;;;;17.57;100.00;100526.94;10463109;28;20460;-76
2024/04/05 11:59:39;;;;;;;1.20;1.20;;;;;;;17.64;100.00;100528.44;10462178;28;20040;-75
2024/04/05 12:04:40;;;;;;;0.50;0.50;;;;;;;17.49;100.00;100530.97;10461255;28;20029;-73
2024/04/05 12:09:40;;;;;;;0.50;0.50;;;;;;;18.35;100.00;100522.19;10460421;28;20115;-73
2024/04/05 12:14:41;;;;;;;0.80;0.80;;;;;;;18.08;100.00;100544.06;10458477;28;20036;-74
2024/04/05 12:19:41;;;;;;;1.05;1.05;;;;;;;18.92;100.00;100543.59;10443128;28;20469;-75
2024/04/05 12:24:45;;;;;;;5.95;3.15;;;;;;;18.66;100.00;100558.94;10461187;28;20029;-73
2024/04/05 12:29:46;;;;;;;6.25;4.20;;;;;;;19.14;100.00;100564.59;10458542;28;20025;-73
2024/04/05 12:34:47;;;;;;;7.85;4.13;;;;;;;19.55;100.00;100568.47;10459994;28;20029;-72
2024/04/05 12:39:48;;;;;;;9.15;3.80;;;;;;;19.69;100.00;100566.94;10441146;28;20440;-75
2024/04/05 12:44:49;;;;;;;9.63;3.45;;;;;;;19.75;100.00;100578.78;10457310;28;20033;-74
2024/04/05 12:49:49;;;;;;;10.70;4.35;;;;;;;20.02;100.00;100575.88;10458022;28;20025;-75
2024/04/05 12:54:51;;;;;;;20.95;3.67;;;;;;;20.23;100.00;100582.31;10426149;28;20131;-73
2024/04/05 12:59:51;;;;;;;9.18;2.85;;;;;;;20.13;100.00;100604.22;10477767;28;20553;-75
2024/04/05 13:04:52;;;;;;;6.97;3.90;;;;;;;20.23;100.00;100604.31;10458020;28;20025;-74
2024/04/05 13:09:52;;;;;;;8.15;3.38;;;;;;;20.21;100.00;100599.06;10458238;28;20098;-73
2024/04/05 13:14:52;;;;;;;3.83;3.42;;;;;;;20.41;100.00;100584.53;10458320;28;20033;-75
2024/04/05 13:19:53;;;;;;;5.85;2.83;;;;;;;20.48;100.00;100605.47;10458796;28;20425;-73
2024/04/05 13:24:53;;;;;;;12.25;4.13;;;;;;;20.35;100.00;100599.38;10456808;28;20405;-72
2024/04/05 13:29:54;;;;;;;4.97;2.25;;;;;;;20.09;100.00;100614.94;10457241;28;20087;-72
2024/04/05 13:34:54;;;;;;;7.22;3.65;;;;;;;19.88;100.00;100626.94;10457547;28;20056;-74
2024/04/05 13:39:54;;;;;;;6.03;3.20;;;;;;;19.86;100.00;100634.63;10457726;28;20041;-74
2024/04/05 13:44:55;;;;;;;8.48;2.55;;;;;;;19.96;100.00;100631.91;10456563;28;20041;-73
2024/04/05 13:49:55;;;;;;;6.72;3.13;;;;;;;20.10;100.00;100615.75;10455792;28;20025;-74
2024/04/05 13:54:56;;;;;;;6.68;3.38;;;;;;;19.97;100.00;100634.41;10458340;28;20341;-73
2024/04/05 13:59:56;;;;;;;3.55;3.25;;;;;;;19.86;100.00;100642.88;10457347;28;20132;-73
2024/04/05 14:05:00;;;;;;;10.57;3.22;;;;;;;19.57;100.00;100664.34;10456799;28;20032;-74
2024/04/05 14:10:01;;;;;;;9.95;4.18;;;;;;;19.24;100.00;100647.88;10457290;28;20052;-74
2024/04/05 14:15:02;;;;;;;10.90;3.92;;;;;;;19.33;100.00;100639.16;10457222;28;20036;-76
2024/04/05 14:20:07;;;;;;;13.05;3.60;;;;;;;19.20;100.00;100656.88;10439796;28;20508;-75
2024/04/05 14:25:09;;;;;;;9.80;3.78;;;;;;;19.07;100.00;100660.88;10459246;28;20047;-74
2024/04/05 14:30:11;;;;;;;9.43;4.78;;;;;;;19.01;100.00;100668.22;10461017;28;20029;-74
2024/04/05 14:35:11;;;;;;;6.13;2.50;;;;;;;19.08;100.00;100673.53;10463663;28;20021;-72
2024/04/05 14:40:12;;;;;;;8.10;3.03;;;;;;;18.96;100.00;100670.13;10472120;28;20028;-74
2024/04/05 14:45:13;;;;;;;6.28;3.17;;;;;;;19.11;100.00;100663.94;10471424;28;20025;-73
2024/04/05 14:50:13;;;;;;;5.28;2.25;;;;;;;18.78;100.00;100685.00;10464098;28;20025;-74
2024/04/05 14:55:13;;;;;;;5.70;2.78;;;;;;;17.94;100.00;100701.72;10463733;28;20025;-71
2024/04/05 15:00:14;;;;;;;4.50;2.42;;;;;;;17.39;100.00;100712.31;10462276;28;20064;-72
2024/04/05 15:05:15;;;;;;;7.95;3.15;;;;;;;17.09;100.00;100729.00;10461169;28;20472;-72
2024/04/05 15:10:15;;;;;;;9.23;3.47;;;;;;;16.95;100.00;100733.94;10462523;28;20114;-74
2024/04/05 15:15:16;;;;;;;10.55;3.67;;;;;;;16.90;100.00;100744.75;10466019;28;20136;-73
2024/04/05 15:20:16;;;;;;;11.85;3.42;;;;;;;16.81;100.00;100754.41;10463270;28;20049;-74
2024/04/05 15:25:19;;;;;;;5.43;3.97;;;;;;;16.58;100.00;100743.53;10463138;28;20151;-73
2024/04/05 15:30:19;;;;;;;12.43;3.95;;;;;;;16.46;100.00;100752.59;10461176;28;20021;-74
2024/04/05 15:35:20;;;;;;;10.23;4.13;;;;;;;16.34;100.00;100749.03;10461384;28;20037;-71
2024/04/05 15:40:22;;;;;;;12.38;3.17;;;;;;;16.27;100.00;100740.97;10459810;28;20456;-72
2024/04/05 15:45:22;;;;;;;7.53;4.60;;;;;;;16.43;100.00;100763.16;10461035;28;20037;-74
2024/04/05 15:50:23;;;;;;;5.78;3.67;;;;;;;16.35;100.00;100756.16;10459652;28;20025;-73
2024/04/05 15:55:23;;;;;;;13.32;3.35;;;;;;;16.31;100.00;100765.91;10460381;28;20087;-74
2024/04/05 16:00:24;;;;;;;15.80;4.70;;;;;;;16.25;100.00;100775.06;10460641;28;20232;-73
2024/04/05 16:05:24;;;;;;;13.40;3.83;;;;;;;16.21;100.00;100782.91;10461033;28;20055;-74
2024/04/05 16:10:25;;;;;;;6.13;2.88;;;;;;;16.06;100.00;100795.38;10458745;28;20088;-73
2024/04/05 16:15:26;;;;;;;5.25;3.45;;;;;;;15.98;100.00;100793.81;10460519;28;20032;-73
2024/04/05 16:20:27;;;;;;;12.82;4.68;;;;;;;16.05;100.00;100794.53;10461781;28;20128;-74
2024/04/05 16:25:28;;;;;;;16.52;4.22;;;;;;;16.04;100.00;100803.78;10426224;28;20033;-71
2024/04/05 16:30:29;;;;;;;5.10;2.97;;;;;;;15.90;100.00;100813.28;10459964;28;20029;-74
2024/04/05 16:35:29;;;;;;;6.55;4.03;;;;;;;15.72;100.00;100830.56;10441665;28;20029;-72
2024/04/05 16:40:30;;;;;;;10.23;4.53;;;;;;;15.41;100.00;100831.59;10460045;28;20086;-71
2024/04/05 16:45:30;;;;;;;9.45;2.92;;;;;;;15.34;100.00;100837.97;10457632;28;20039;-72
2024/04/05 16:50:30;;;;;;;15.77;4.93;;;;;;;15.30;100.00;100834.06;10459167;28;20028;-73
2024/04/05 16:55:31;;;;;;;17.10;5.38;;;;;;;15.20;100.00;100835.69;10458909;28;20415;-73
2024/04/05 17:00:38;;;;;;;9.48;3.40;;;;;;;15.26;100.00;100835.59;10459350;28;20116;-74
2024/04/05 17:05:38;;;;;;;10.10;3.40;;;;;;;15.14;100.00;100825.69;10458073;28;20032;-72
2024/04/05 17:10:43;;;;;;;17.08;3.40;;;;;;;15.07;100.00;100839.41;10458058;28;20143;-72
2024/04/05 17:15:43;;;;;;;16.02;5.30;;;;;;;14.88;100.00;100838.56;10441135;28;20460;-72
2024/04/05 17:20:44;;;;;;;5.28;3.40;;;;;;;14.81;100.00;100848.72;10455900;28;20132;-72
2024/04/05 17:25:44;;;;;;;5.25;2.65;;;;;;;14.81;100.00;100849.56;10458649;28;20120;-72
2024/04/05 17:30:47;;;;;;;11.20;4.00;;;;;;;14.55;100.00;100856.13;10457544;28;20445;-73
2024/04/05 17:35:47;;;;;;;9.35;3.92;;;;;;;14.46;100.00;100862.91;10457402;28;20113;-74
2024/04/05 17:40:48;;;;;;;12.40;4.30;;;;;;;14.37;100.00;100870.50;10439131;28;20461;-74
2024/04/05 17:45:48;;;;;;;16.38;3.47;;;;;;;14.27;100.00;100863.91;10457595;28;20471;-74
2024/04/05 17:50:49;;;;;;;7.68;2.88;;;;;;;14.22;100.00;100874.63;10456120;28;20029;-73
2024/04/05 17:55:51;;;;;;;7.25;3.13;;;;;;;14.19;100.00;100879.44;10457188;28;20056;-73
2024/04/05 18:00:51;;;;;;;4.90;2.90;;;;;;;14.10;100.00;100893.56;10457129;28;20087;-73
2024/04/05 18:05:52;;;;;;;21.60;5.35;;;;;;;14.12;100.00;100900.47;10456489;28;20044;-74
2024/04/05 18:10:52;;;;;;;5.90;3.50;;;;;;;13.99;100.00;100903.28;10454608;28;20369;-74
2024/04/05 18:15:52;;;;;;;9.80;3.00;;;;;;;14.04;100.00;100910.78;10454046;28;20029;-72
2024/04/05 18:20:53;;;;;;;22.13;5.43;;;;;;;13.86;100.00;100919.72;10456072;28;20032;-74
2024/04/05 18:25:55;;;;;;;5.18;3.97;;;;;;;13.85;100.00;100927.03;10456888;28;20072;-74
2024/04/05 18:30:55;;;;;;;4.60;2.45;;;;;;;13.76;100.00;100933.78;10456012;28;20072;-75
2024/04/05 18:36:10;;;;;;;13.98;3.25;;;;;;;13.70;100.00;100926.50;10455063;28;20124;-72
2024/04/05 18:41:11;;;;;;;5.68;2.80;;;;;;;13.58;100.00;100929.06;10455140;28;20039;-73
2024/04/05 18:46:11;;;;;;;10.80;3.97;;;;;;;13.57;100.00;100924.69;10454132;28;20124;-72
2024/04/05 18:51:14;;;;;;;2.90;2.38;;;;;;;13.59;100.00;100928.03;10437655;28;20021;-73
2024/04/05 18:56:17;;;;;;;8.30;4.72;;;;;;;13.60;100.00;100921.53;10453288;28;20021;-71
2024/04/05 19:01:18;;;;;;;26.80;4.95;;;;;;;13.60;100.00;100935.13;10455618;28;20039;-73
2024/04/05 19:06:18;;;;;;;9.43;3.47;;;;;;;13.55;100.00;100937.66;10436769;28;20449;-72
2024/04/05 19:11:19;;;;;;;18.77;3.88;;;;;;;13.59;100.00;100955.22;10453425;28;20032;-70
2024/04/05 19:16:19;;;;;;;15.93;3.63;;;;;;;13.62;100.00;100956.66;10469676;28;20056;-72
2024/04/05 19:21:20;;;;;;;14.38;3.67;;;;;;;13.73;100.00;100964.16;10453135;28;20025;-73
2024/04/05 19:26:20;;;;;;;8.02;3.90;;;;;;;13.70;100.00;100957.25;10460352;28;20033;-71
2024/04/05 19:31:21;;;;;;;4.30;2.55;;;;;;;13.72;100.00;100954.34;10443862;28;20045;-71
2024/04/05 19:36:23;;;;;;;5.90;3.03;;;;;;;13.65;100.00;100970.66;10443870;28;20036;-73
2024/04/05 19:41:24;;;;;;;5.80;3.15;;;;;;;13.61;100.00;100969.44;10462705;28;20108;-74
2024/04/05 19:46:27;;;;;;;6.97;4.05;;;;;;;13.61;100.00;100968.59;10443193;28;20043;-73
2024/04/05 19:51:27;;;;;;;12.75;3.88;;;;;;;13.54;100.00;100967.81;10460859;28;20067;-72
2024/04/05 19:56:28;;;;;;;12.15;2.88;;;;;;;13.54;100.00;100960.47;10461187;28;20087;-73
2024/04/05 20:01:29;;;;;;;18.38;4.00;;;;;;;13.51;100.00;100958.19;10460954;28;20128;-72
2024/04/05 20:06:30;;;;;;;10.70;3.50;;;;;;;13.49;100.00;100944.78;10460296;28;20033;-71
2024/04/05 20:11:31;;;;;;;3.30;2.08;;;;;;;13.57;100.00;100951.88;10475364;28;20033;-75
2024/04/05 20:16:32;;;;;;;9.35;5.18;;;;;;;13.47;100.00;100951.50;10458585;28;20132;-71
2024/04/05 20:21:34;;;;;;;4.63;3.08;;;;;;;13.52;100.00;100940.81;10460543;28;20021;-70
2024/04/05 20:26:34;;;;;;;11.52;3.60;;;;;;;13.49;100.00;100938.50;10458479;28;20052;-71
2024/04/05 20:36:53;;;;;;;7.45;3.22;;;;;;;13.41;100.00;100944.22;10471633;28;20112;-72
2024/04/05 20:41:54;;;;;;;3.50;2.72;;;;;;;13.38;100.00;100936.47;10457833;28;20029;-72
2024/04/05 20:46:55;;;;;;;14.07;3.17;;;;;;;13.33;100.00;100928.13;10459514;28;20028;-72
2024/04/05 20:51:55;;;;;;;6.03;3.25;;;;;;;13.33;100.00;100945.25;10458724;28;20032;-71
2024/04/05 20:56:55;;;;;;;14.95;4.35;;;;;;;13.22;100.00;100933.16;10456851;28;20442;-72
2024/04/05 21:01:59;;;;;;;12.20;3.80;;;;;;;13.18;100.00;100931.91;10458716;28;20075;-71
2024/04/05 21:07:03;;;;;;;4.07;3.20;;;;;;;13.13;100.00;100942.59;10423881;28;20021;-73
2024/04/05 21:12:03;;;;;;;12.48;2.85;;;;;;;13.00;100.00;100946.16;10458358;28;20032;-73
2024/04/05 21:17:04;;;;;;;8.90;4.28;;;;;;;12.99;100.00;100960.00;10457918;28;20098;-72
2024/04/05 21:22:04;;;;;;;7.47;4.93;;;;;;;12.90;100.00;100953.94;10457713;28;20530;-71
2024/04/05 21:27:05;;;;;;;3.60;3.30;;;;;;;12.87;100.00;100956.25;10473427;28;20040;-72
2024/04/05 21:32:11;;;;;;;7.95;3.80;;;;;;;12.90;100.00;100955.81;10457069;28;20024;-72
2024/04/05 21:37:11;;;;;;;12.70;4.53;;;;;;;12.98;100.00;100958.31;10457017;28;20063;-71
2024/04/05 21:42:12;;;;;;;4.45;3.33;;;;;;;13.06;100.00;100965.41;10458807;28;20367;-70
2024/04/05 21:47:12;;;;;;;5.13;3.20;;;;;;;13.01;100.00;100976.91;10455796;28;20036;-70
2024/04/05 21:52:13;;;;;;;6.78;2.80;;;;;;;12.92;100.00;100989.03;10457094;28;20434;-72
2024/04/05 21:57:15;;;;;;;7.25;3.03;;;;;;;12.93;100.00;100994.28;10456080;28;20395;-74
2024/04/05 22:02:15;;;;;;;6.88;2.85;;;;;;;12.98;100.00;100996.34;10455724;28;20079;-74
2024/04/05 22:07:16;;;;;;;11.73;3.80;;;;;;;13.09;100.00;101009.31;10461181;28;20103;-73
2024/04/05 22:12:16;;;;;;;18.52;6.15;;;;;;;13.24;100.00;100999.09;10457474;28;20033;-73
2024/04/05 22:17:17;;;;;;;11.43;4.85;;;;;;;13.33;100.00;101007.00;10456372;28;20049;-73
2024/04/05 22:22:17;;;;;;;13.00;3.58;;;;;;;13.43;100.00;101015.53;10459062;28;20079;-73
2024/04/05 22:27:17;;;;;;;9.70;4.13;;;;;;;13.53;100.00;101023.25;10440506;28;20455;-73
2024/04/05 22:32:19;;;;;;;16.08;3.35;;;;;;;13.51;100.00;101034.38;10458136;28;20029;-74
2024/04/05 22:37:19;;;;;;;12.88;3.50;;;;;;;13.52;100.00;101030.59;10474347;28;20183;-72
2024/04/05 22:42:19;;;;;;;13.73;4.25;;;;;;;13.60;100.00;101038.53;10457122;28;20457;-73